createdAt,value
2022-11-24T00:01:06.259Z,1.14
2022-11-24T00:04:29.133Z,1.21
2022-11-24T00:07:41.034Z,1.16
2022-11-24T00:10:53.343Z,1.10
2022-11-24T00:14:19.467Z,1.13
2022-11-24T00:17:33.568Z,1.08
2022-11-24T00:20:45.553Z,1.10
2022-11-24T00:31:42.266Z,1.08
2022-11-24T00:35:07.739Z,1.10
2022-11-24T00:38:19.954Z,1.06
2022-11-24T00:41:33.990Z,1.04
2022-11-24T00:44:46.086Z,1.05
2022-11-24T00:48:07.452Z,1.04
2022-11-24T00:51:22.221Z,1.09
2022-11-24T00:58:15.167Z,1.00
2022-11-24T01:01:31.386Z,1.06
2022-11-24T01:29:35.861Z,1.04
2022-11-24T01:32:47.950Z,1.03
2022-11-24T01:36:00.996Z,1.06
2022-11-24T01:39:13.565Z,1.12
2022-11-24T01:42:25.835Z,1.10
2022-11-24T01:45:45.024Z,1.12
2022-11-24T01:49:02.714Z,1.08
2022-11-24T01:56:37.026Z,1.04
2022-11-24T01:59:49.575Z,1.05
2022-11-24T02:03:06.567Z,1.04
2022-11-24T02:06:22.679Z,1.14
2022-11-24T02:09:40.764Z,1.19
2022-11-24T02:12:55.519Z,1.16
2022-11-24T02:16:21.996Z,1.09
2022-11-24T02:19:50.239Z,1.00
2022-11-24T02:23:24.263Z,1.08
2022-11-24T02:31:03.877Z,1.31
2022-11-24T02:37:57.571Z,1.41
2022-11-24T02:41:13.365Z,1.42
2022-11-24T02:44:44.224Z,1.47
2022-11-24T02:47:56.177Z,1.49
2022-11-24T02:51:08.492Z,1.49
2022-11-24T02:54:20.581Z,1.49
2022-11-24T02:57:32.473Z,1.48
2022-11-24T03:04:24.744Z,1.52
2022-11-24T03:07:36.784Z,1.55
2022-11-24T03:10:49.367Z,1.58
2022-11-24T03:14:01.277Z,1.62
2022-11-24T03:17:13.366Z,1.62
2022-11-24T03:20:25.879Z,1.65
2022-11-24T03:23:48.837Z,1.67
2022-11-24T03:27:00.926Z,1.60
2022-11-24T03:30:17.852Z,1.65
2022-11-24T03:33:30.990Z,1.64
2022-11-24T03:36:50.924Z,1.68
2022-11-24T03:40:02.881Z,1.67
2022-11-24T03:43:15.891Z,1.68
2022-11-24T03:46:28.907Z,1.72
2022-11-24T03:49:41.757Z,1.74
2022-11-24T03:52:53.598Z,1.75
2022-11-24T03:56:06.202Z,1.76
2022-11-24T03:59:19.593Z,1.77
2022-11-24T04:02:32.731Z,1.73
2022-11-24T04:05:44.940Z,1.74
2022-11-24T04:08:57.337Z,1.75
2022-11-24T04:12:24.303Z,1.73
2022-11-24T04:15:47.333Z,1.73
2022-11-24T04:19:01.416Z,1.73
2022-11-24T04:22:13.300Z,1.68
2022-11-24T04:45:06.188Z,1.58
2022-11-24T04:48:18.219Z,1.55
2022-11-24T04:51:30.308Z,1.56
2022-11-24T04:54:42.864Z,1.59
2022-11-24T04:58:02.552Z,1.62
2022-11-24T05:01:15.993Z,1.59
2022-11-24T05:04:37.521Z,1.56
2022-11-24T05:07:49.856Z,1.57
2022-11-24T05:11:02.073Z,1.57
2022-11-24T05:14:23.694Z,1.58
2022-11-24T05:17:39.467Z,1.52
2022-11-24T05:20:51.691Z,1.52
2022-11-24T05:24:03.798Z,1.51
2022-11-24T05:27:16.027Z,1.49
2022-11-24T05:30:29.233Z,1.46
2022-11-24T05:33:43.473Z,1.45
2022-11-24T05:37:00.761Z,1.43
2022-11-24T05:40:14.225Z,1.42
2022-11-24T05:47:06.526Z,1.40
2022-11-24T05:50:22.821Z,1.38
2022-11-24T05:53:34.823Z,1.40
2022-11-24T05:56:46.904Z,1.42
2022-11-24T05:59:59.235Z,1.42
2022-11-24T06:03:23.401Z,1.43
2022-11-24T06:06:35.547Z,1.43
2022-11-24T06:09:48.690Z,1.44
2022-11-24T06:13:02.263Z,1.42
2022-11-24T06:16:15.095Z,1.44
2022-11-24T06:19:28.018Z,1.43
2022-11-24T06:22:40.242Z,1.38
2022-11-24T06:25:52.441Z,1.38
2022-11-24T06:29:05.457Z,1.35
2022-11-24T06:32:17.680Z,1.34
2022-11-24T06:35:29.671Z,1.34
2022-11-24T06:38:42.606Z,1.36
2022-11-24T06:41:57.187Z,1.40
2022-11-24T06:45:10.244Z,1.43
2022-11-24T06:48:22.177Z,1.47
2022-11-24T06:51:34.479Z,1.48
2022-11-24T06:54:46.779Z,1.52
2022-11-24T06:57:59.059Z,1.59
2022-11-24T07:01:11.043Z,1.53
2022-11-24T07:04:23.359Z,1.53
2022-11-24T07:07:35.254Z,1.52
2022-11-24T07:10:47.725Z,1.54
2022-11-24T07:14:00.245Z,1.51
2022-11-24T07:17:12.675Z,1.54
2022-11-24T07:20:25.258Z,1.54
2022-11-24T07:23:37.975Z,1.53
2022-11-24T07:26:49.829Z,1.51
2022-11-24T07:30:01.781Z,1.46
2022-11-24T07:33:13.767Z,1.45
2022-11-24T07:36:26.226Z,1.47
2022-11-24T07:39:38.392Z,1.51
2022-11-24T07:42:50.297Z,1.48
2022-11-24T07:46:03.162Z,1.43
2022-11-24T07:49:15.094Z,1.43
2022-11-24T07:52:27.193Z,1.49
2022-11-24T07:55:39.018Z,1.51
2022-11-24T07:58:53.026Z,1.52
2022-11-24T08:02:04.933Z,1.54
2022-11-24T08:05:17.551Z,1.51
2022-11-24T08:08:31.738Z,1.55
2022-11-24T08:11:43.615Z,1.59
2022-11-24T08:14:56.720Z,1.62
2022-11-24T08:18:10.609Z,1.54
2022-11-24T08:21:23.613Z,1.58
2022-11-24T08:24:36.000Z,1.55
2022-11-24T08:27:48.184Z,1.54
2022-11-24T08:31:07.588Z,1.58
2022-11-24T08:34:19.829Z,1.62
2022-11-24T08:37:31.655Z,1.61
2022-11-24T08:40:43.655Z,1.64
2022-11-24T08:43:56.246Z,1.59
2022-11-24T08:47:08.718Z,1.51
2022-11-24T08:50:21.373Z,1.54
2022-11-24T08:53:33.125Z,1.53
2022-11-24T08:56:45.201Z,1.55
2022-11-24T08:59:56.980Z,1.57
2022-11-24T09:03:08.780Z,1.61
2022-11-24T09:06:23.085Z,1.61
2022-11-24T09:09:35.421Z,1.57
2022-11-24T09:12:47.420Z,1.60
2022-11-24T09:15:59.215Z,1.64
2022-11-24T09:19:12.801Z,1.61
2022-11-24T09:22:24.675Z,1.60
2022-11-24T09:25:36.688Z,1.62
2022-11-24T09:28:50.239Z,1.62
2022-11-24T09:32:06.757Z,1.57
2022-11-24T09:35:17.090Z,1.56
2022-11-24T09:38:29.287Z,1.56
2022-11-24T09:42:07.375Z,1.57
2022-11-24T09:46:04.045Z,1.56
2022-11-24T09:48:55.343Z,1.57
2022-11-24T09:52:08.290Z,1.57
2022-11-24T09:55:37.765Z,1.56
2022-11-24T09:58:53.391Z,1.55
2022-11-24T10:02:06.213Z,1.52
2022-11-24T10:05:20.346Z,1.45
2022-11-24T10:08:49.872Z,1.48
2022-11-24T10:12:10.584Z,1.49
2022-11-24T10:15:42.396Z,1.51
2022-11-24T10:19:05.281Z,1.56
2022-11-24T10:22:31.537Z,1.56
2022-11-24T10:25:51.325Z,1.56
2022-11-24T10:29:03.631Z,1.56
2022-11-24T10:32:22.083Z,1.62
2022-11-24T10:35:41.258Z,1.56
2022-11-24T10:39:00.603Z,1.58
2022-11-24T10:42:22.516Z,1.53
2022-11-24T10:45:37.650Z,1.61
2022-11-24T10:48:53.921Z,1.65
2022-11-24T10:52:16.695Z,1.67
2022-11-24T10:55:28.634Z,1.71
2022-11-24T10:58:42.888Z,1.60
2022-11-24T11:01:55.083Z,1.51
2022-11-24T11:05:35.256Z,1.55
2022-11-24T11:08:47.751Z,1.56
2022-11-24T11:12:10.010Z,1.56
2022-11-24T11:15:36.248Z,1.53
2022-11-24T11:18:52.311Z,1.55
2022-11-24T11:22:10.886Z,1.55
2022-11-24T11:25:34.028Z,1.52
2022-11-24T11:28:45.819Z,1.57
2022-11-24T11:35:26.942Z,1.57
2022-11-24T11:38:43.417Z,1.54
2022-11-24T11:42:03.020Z,1.51
2022-11-24T11:45:21.386Z,1.59
2022-11-24T11:48:43.635Z,1.58
2022-11-24T11:52:05.588Z,1.57
2022-11-24T11:55:49.684Z,1.59
2022-11-24T11:59:40.688Z,1.61
2022-11-24T12:03:36.188Z,1.60
2022-11-24T12:07:03.553Z,1.58
2022-11-24T12:10:25.733Z,1.62
2022-11-24T12:14:07.738Z,1.63
2022-11-24T12:17:25.622Z,1.59
2022-11-24T12:20:57.194Z,1.58
2022-11-24T12:24:15.785Z,1.63
2022-11-24T12:27:38.306Z,1.61
2022-11-24T12:30:56.762Z,1.61
2022-11-24T12:34:27.688Z,1.55
2022-11-24T12:37:58.522Z,1.59
2022-11-24T12:41:43.715Z,1.57
2022-11-24T12:45:22.702Z,1.57
2022-11-24T12:48:47.446Z,1.56
2022-11-24T12:52:04.223Z,1.55
2022-11-24T12:55:25.489Z,1.55
2022-11-24T12:58:45.739Z,1.52
2022-11-24T13:02:06.762Z,1.53
2022-11-24T13:05:29.594Z,1.56
2022-11-24T13:08:44.029Z,1.53
2022-11-24T13:12:02.131Z,1.51
2022-11-24T13:15:44.657Z,1.51
2022-11-24T13:18:56.007Z,1.55
2022-11-24T13:22:28.921Z,1.55
2022-11-24T13:25:42.290Z,1.56
2022-11-24T13:29:18.310Z,1.60
2022-11-24T13:33:06.358Z,1.60
2022-11-24T13:37:31.168Z,1.59
2022-11-24T13:41:06.281Z,1.55
2022-11-24T13:44:33.315Z,1.56
2022-11-24T13:47:50.481Z,1.50
2022-11-24T13:51:28.608Z,1.38
2022-11-24T13:54:41.133Z,1.32
2022-11-24T13:57:55.726Z,1.25
2022-11-24T14:01:22.393Z,1.21
2022-11-24T14:04:37.399Z,1.25
2022-11-24T14:07:51.300Z,1.16
2022-11-24T14:11:06.255Z,1.10
2022-11-24T14:14:27.058Z,1.08
2022-11-24T14:17:40.883Z,1.10
2022-11-24T14:20:52.958Z,1.09
2022-11-24T14:24:08.375Z,1.07
2022-11-24T14:27:24.550Z,1.08
2022-11-24T14:30:36.615Z,1.03
2022-11-24T14:33:48.525Z,1.08
2022-11-24T14:37:02.011Z,1.08
2022-11-24T14:40:47.012Z,1.11
2022-11-24T14:44:17.193Z,1.12
2022-11-24T14:47:36.266Z,1.14
2022-11-24T14:50:48.557Z,1.08
2022-11-24T14:54:04.090Z,1.06
2022-11-24T14:57:36.355Z,1.05
2022-11-24T15:00:48.115Z,1.05
2022-11-24T15:07:37.353Z,1.04
2022-11-24T15:10:49.820Z,1.10
2022-11-24T15:14:01.838Z,1.03
2022-11-24T15:17:13.786Z,1.04
2022-11-24T15:20:32.084Z,0.99
2022-11-24T15:23:45.766Z,1.02
2022-11-24T15:27:05.557Z,0.94
2022-11-24T15:30:20.380Z,0.99
2022-11-24T15:33:33.083Z,1.00
2022-11-24T15:36:45.039Z,1.02
2022-11-24T15:39:58.584Z,0.92
2022-11-24T15:43:30.412Z,0.86
2022-11-24T15:46:42.698Z,0.83
2022-11-24T15:49:55.236Z,0.92
2022-11-24T15:53:10.219Z,0.94
2022-11-24T15:56:31.567Z,1.00
2022-11-24T15:59:44.888Z,0.87
2022-11-24T16:03:00.052Z,0.92
2022-11-24T16:06:23.772Z,0.84
2022-11-24T16:09:31.903Z,0.87
2022-11-24T16:12:44.787Z,0.89
2022-11-24T16:15:57.689Z,0.89
2022-11-24T16:19:10.977Z,0.91
2022-11-24T16:22:24.561Z,0.94
2022-11-24T16:25:38.312Z,0.94
2022-11-24T16:28:53.670Z,0.85
2022-11-24T16:32:07.037Z,0.79
2022-11-24T16:35:20.151Z,0.71
2022-11-24T16:38:32.431Z,0.69
2022-11-24T16:41:44.740Z,0.69
2022-11-24T16:44:57.315Z,0.66
2022-11-24T16:48:09.965Z,0.61
2022-11-24T16:51:24.497Z,0.58
2022-11-24T16:54:37.862Z,0.59
2022-11-24T16:57:51.361Z,0.59
2022-11-24T17:01:10.837Z,0.59
2022-11-24T17:04:24.284Z,0.62
2022-11-24T17:07:37.690Z,0.69
2022-11-24T17:10:50.274Z,0.76
2022-11-24T17:14:04.208Z,0.66
2022-11-24T17:17:19.237Z,0.66
2022-11-24T17:20:33.458Z,0.66
2022-11-24T17:23:48.417Z,0.72
2022-11-24T17:27:02.613Z,0.79
2022-11-24T17:30:20.221Z,0.82
2022-11-24T17:33:35.545Z,0.75
2022-11-24T17:36:48.404Z,0.80
2022-11-24T17:40:26.970Z,0.87
2022-11-24T17:43:15.045Z,0.92
2022-11-24T17:46:27.916Z,0.93
2022-11-24T17:49:40.376Z,0.85
2022-11-24T17:52:52.295Z,0.72
2022-11-24T17:56:06.744Z,0.72
2022-11-24T17:59:18.968Z,0.75
2022-11-24T18:02:30.992Z,0.77
2022-11-24T18:05:44.891Z,0.81
2022-11-24T18:08:58.064Z,0.85
2022-11-24T18:12:10.958Z,0.85
2022-11-24T18:15:23.155Z,0.91
2022-11-24T18:18:40.036Z,0.93
2022-11-24T18:21:49.839Z,0.89
2022-11-24T18:25:02.049Z,0.80
2022-11-24T18:28:14.231Z,0.79
2022-11-24T18:31:26.430Z,0.80
2022-11-24T18:34:38.657Z,0.75
2022-11-24T18:37:51.066Z,0.74
2022-11-24T18:41:05.234Z,0.76
2022-11-24T18:44:17.407Z,0.79
2022-11-24T18:47:29.326Z,0.87
2022-11-24T18:50:41.368Z,0.93
2022-11-24T18:53:58.294Z,0.93
2022-11-24T18:57:08.551Z,0.96
2022-11-24T19:00:22.041Z,1.01
2022-11-24T19:03:33.931Z,1.03
2022-11-24T19:06:46.731Z,1.09
2022-11-24T19:09:58.704Z,1.01
2022-11-24T19:13:10.723Z,1.12
2022-11-24T19:16:24.426Z,1.14
2022-11-24T19:19:37.301Z,1.14
2022-11-24T19:22:49.231Z,1.15
2022-11-24T19:26:01.162Z,1.12
2022-11-24T19:29:14.146Z,1.12
2022-11-24T19:32:26.077Z,1.11
2022-11-24T19:35:38.083Z,1.12
2022-11-24T19:38:54.448Z,1.09
2022-11-24T19:42:06.403Z,1.10
2022-11-24T19:45:18.935Z,1.10
2022-11-24T19:48:39.924Z,1.11
2022-11-24T19:51:52.054Z,1.09
2022-11-24T19:55:03.922Z,1.11
2022-11-24T19:58:15.979Z,1.09
2022-11-24T20:01:30.195Z,1.10
2022-11-24T20:04:43.066Z,1.11
2022-11-24T20:07:55.166Z,1.10
2022-11-24T20:11:13.312Z,1.09
2022-11-24T20:14:26.028Z,1.10
2022-11-24T20:17:37.925Z,1.12
2022-11-24T20:20:49.887Z,1.11
2022-11-24T20:24:04.216Z,1.12
2022-11-24T20:27:16.186Z,1.13
2022-11-24T20:30:28.201Z,1.13
2022-11-24T20:33:42.681Z,1.12
2022-11-24T20:36:56.868Z,1.08
2022-11-24T20:40:09.995Z,1.09
2022-11-24T20:43:21.930Z,1.10
2022-11-24T20:46:36.406Z,1.08
2022-11-24T20:49:48.282Z,1.11
2022-11-24T20:53:00.754Z,1.12
2022-11-24T20:56:16.003Z,1.11
2022-11-24T20:59:29.671Z,1.11
2022-11-24T21:02:41.203Z,1.09
2022-11-24T21:05:53.327Z,1.08
2022-11-24T21:09:05.375Z,1.07
2022-11-24T21:12:17.424Z,1.10
2022-11-24T21:15:29.688Z,1.10
2022-11-24T21:18:42.358Z,1.04
2022-11-24T21:21:54.601Z,1.06
2022-11-24T21:25:06.272Z,1.07
2022-11-24T21:28:18.258Z,1.06
2022-11-24T21:31:30.454Z,1.00
2022-11-24T21:34:42.207Z,1.00
2022-11-24T21:37:54.100Z,0.97
2022-11-24T21:41:09.630Z,0.95
2022-11-24T21:44:22.012Z,0.98
2022-11-24T21:47:34.282Z,0.99
2022-11-24T21:50:45.964Z,1.02
2022-11-24T21:53:58.113Z,1.04
2022-11-24T21:57:10.141Z,1.04
2022-11-24T22:00:25.069Z,1.06
2022-11-24T22:03:36.878Z,1.09
2022-11-24T22:06:48.743Z,1.10
2022-11-24T22:10:00.879Z,1.13
2022-11-24T22:13:12.820Z,1.16
2022-11-24T22:16:26.583Z,1.17
2022-11-24T22:19:38.468Z,1.19
2022-11-24T22:22:50.176Z,1.21
2022-11-24T22:26:01.963Z,1.18
2022-11-24T22:29:13.971Z,1.20
2022-11-24T22:32:25.663Z,1.20
2022-11-24T22:35:37.545Z,1.17
2022-11-24T22:38:50.362Z,1.14
2022-11-24T22:42:02.457Z,1.14
2022-11-24T22:45:16.945Z,1.10
2022-11-24T22:48:28.636Z,1.07
2022-11-24T22:51:43.736Z,1.07
2022-11-24T22:54:55.869Z,1.04
2022-11-24T22:58:07.735Z,1.03
2022-11-24T23:01:22.135Z,1.01
2022-11-24T23:04:34.197Z,0.99
2022-11-24T23:07:46.287Z,0.99
2022-11-24T23:11:04.222Z,1.00
2022-11-24T23:14:20.479Z,0.99
2022-11-24T23:17:32.268Z,1.00
2022-11-24T23:20:44.959Z,0.98
2022-11-24T23:23:58.323Z,1.00
2022-11-24T23:27:10.277Z,0.99
2022-11-24T23:30:22.427Z,0.97
2022-11-24T23:33:34.287Z,0.98
2022-11-24T23:36:46.382Z,0.92
2022-11-24T23:39:58.022Z,0.97
2022-11-24T23:43:09.689Z,0.99
2022-11-24T23:46:23.893Z,1.00
2022-11-24T23:49:36.327Z,1.01
2022-11-24T23:52:48.214Z,1.04
2022-11-24T23:56:03.345Z,1.03
2022-11-24T23:59:18.935Z,1.03
